createdAt,value
2022-11-26T00:02:15.356Z,10.80
2022-11-26T00:06:30.824Z,11.00
2022-11-26T00:10:35.912Z,10.90
2022-11-26T00:14:37.923Z,10.80
2022-11-26T00:18:40.729Z,11.00
2022-11-26T00:22:46.333Z,10.50
2022-11-26T00:26:48.034Z,10.40
2022-11-26T00:30:49.770Z,10.50
2022-11-26T00:34:51.939Z,10.40
2022-11-26T00:39:07.122Z,10.40
2022-11-26T00:43:12.762Z,10.30
2022-11-26T00:47:14.617Z,10.00
2022-11-26T00:51:28.135Z,10.20
2022-11-26T00:55:45.429Z,9.90
2022-11-26T00:59:47.088Z,9.90
2022-11-26T01:03:49.043Z,10.10
2022-11-26T01:07:52.308Z,9.70
2022-11-26T01:11:54.656Z,9.60
2022-11-26T01:15:58.470Z,9.70
2022-11-26T01:20:00.144Z,9.60
2022-11-26T01:24:01.788Z,10.00
2022-11-26T01:28:03.983Z,9.80
2022-11-26T01:32:05.792Z,9.80
2022-11-26T01:36:22.597Z,9.80
2022-11-26T01:40:38.775Z,9.80
2022-11-26T01:44:40.726Z,10.00
2022-11-26T01:48:43.419Z,9.30
2022-11-26T01:52:45.129Z,9.90
2022-11-26T01:56:52.662Z,10.10
2022-11-26T02:00:54.428Z,10.00
2022-11-26T02:05:03.414Z,10.10
2022-11-26T02:09:08.541Z,10.20
2022-11-26T02:13:10.493Z,10.40
2022-11-26T02:17:19.448Z,10.50
2022-11-26T02:21:28.131Z,10.20
2022-11-26T02:25:35.632Z,10.40
2022-11-26T02:29:59.201Z,10.50
2022-11-26T02:34:30.634Z,10.90
2022-11-26T02:38:38.128Z,11.20
2022-11-26T02:42:40.176Z,11.40
2022-11-26T02:46:43.717Z,11.40
2022-11-26T02:50:51.023Z,11.10
2022-11-26T02:54:53.094Z,11.30
2022-11-26T02:58:56.268Z,11.30
2022-11-26T03:03:10.418Z,11.30
2022-11-26T03:07:14.855Z,11.10
2022-11-26T03:11:16.707Z,11.00
2022-11-26T03:15:18.457Z,11.10
2022-11-26T03:19:20.163Z,11.10
2022-11-26T03:23:22.065Z,11.00
2022-11-26T03:27:23.753Z,11.50
2022-11-26T03:31:25.580Z,11.60
2022-11-26T03:35:27.735Z,11.60
2022-11-26T03:39:29.408Z,11.70
2022-11-26T03:43:31.876Z,12.10
2022-11-26T03:47:33.770Z,12.20
2022-11-26T03:51:35.488Z,12.30
2022-11-26T03:55:37.185Z,12.10
2022-11-26T03:59:38.920Z,11.70
2022-11-26T04:03:41.243Z,11.70
2022-11-26T04:07:43.021Z,11.90
2022-11-26T04:11:44.763Z,11.80
2022-11-26T04:15:48.323Z,11.30
2022-11-26T04:19:50.020Z,11.10
2022-11-26T04:23:51.777Z,11.10
2022-11-26T04:27:53.581Z,11.30
2022-11-26T04:31:55.378Z,11.50
2022-11-26T04:35:57.124Z,10.90
2022-11-26T04:39:58.829Z,11.20
2022-11-26T04:44:00.574Z,11.50
2022-11-26T04:48:02.323Z,11.90
2022-11-26T04:52:04.140Z,11.90
2022-11-26T04:56:06.037Z,11.60
2022-11-26T05:00:08.544Z,11.70
2022-11-26T05:04:10.352Z,11.60
2022-11-26T05:08:12.006Z,11.70
2022-11-26T05:12:13.833Z,11.60
2022-11-26T05:16:15.612Z,11.70
2022-11-26T05:20:17.378Z,11.40
2022-11-26T05:24:19.192Z,11.30
2022-11-26T05:28:21.061Z,11.60
2022-11-26T05:32:23.263Z,11.70
2022-11-26T05:36:24.950Z,11.80
2022-11-26T05:40:26.662Z,11.60
2022-11-26T05:44:28.575Z,11.60
2022-11-26T05:48:30.371Z,11.60
2022-11-26T05:52:32.045Z,11.70
2022-11-26T05:56:33.836Z,11.80
2022-11-26T06:00:35.560Z,11.80
2022-11-26T06:04:37.565Z,11.90
2022-11-26T06:08:39.551Z,11.90
2022-11-26T06:12:41.482Z,11.50
2022-11-26T06:16:43.211Z,11.40
2022-11-26T06:20:45.244Z,11.60
2022-11-26T06:24:46.971Z,11.30
2022-11-26T06:28:48.686Z,10.60
2022-11-26T06:32:50.472Z,10.50
2022-11-26T06:36:52.263Z,10.90
2022-11-26T06:41:05.634Z,10.90
2022-11-26T06:45:07.966Z,10.80
2022-11-26T06:49:10.621Z,10.80
2022-11-26T06:53:13.468Z,11.00
2022-11-26T06:57:15.257Z,10.70
2022-11-26T07:01:20.707Z,10.50
2022-11-26T07:05:22.975Z,10.60
2022-11-26T07:09:25.103Z,10.30
2022-11-26T07:13:26.950Z,10.40
2022-11-26T07:17:29.195Z,10.40
2022-11-26T07:21:32.396Z,10.60
2022-11-26T07:25:34.082Z,10.10
2022-11-26T07:29:35.768Z,10.10
2022-11-26T07:33:38.052Z,10.30
2022-11-26T07:37:39.752Z,10.20
2022-11-26T07:41:41.447Z,10.40
2022-11-26T07:45:43.146Z,10.00
2022-11-26T07:49:44.958Z,10.00
2022-11-26T07:53:47.047Z,10.20
2022-11-26T07:57:48.793Z,10.60
2022-11-26T08:01:50.783Z,10.50
2022-11-26T08:05:52.609Z,10.50
2022-11-26T08:09:54.339Z,10.80
2022-11-26T08:14:09.511Z,10.70
2022-11-26T08:18:11.965Z,11.10
2022-11-26T08:22:13.809Z,11.00
2022-11-26T08:26:30.645Z,11.10
2022-11-26T08:30:35.579Z,11.40
2022-11-26T08:34:38.115Z,11.50
2022-11-26T08:38:40.034Z,11.50
2022-11-26T08:42:41.730Z,11.70
2022-11-26T08:46:43.411Z,12.30
2022-11-26T08:50:45.204Z,12.10
2022-11-26T08:54:47.202Z,12.20
2022-11-26T08:58:51.368Z,12.30
2022-11-26T09:02:53.175Z,12.20
2022-11-26T09:06:54.918Z,12.50
2022-11-26T09:10:56.671Z,12.40
2022-11-26T09:14:58.429Z,12.60
2022-11-26T09:19:01.645Z,12.20
2022-11-26T09:23:03.320Z,10.90
2022-11-26T09:27:08.000Z,11.50
2022-11-26T09:31:10.063Z,12.10
2022-11-26T09:35:11.879Z,12.30
2022-11-26T09:39:14.262Z,12.50
2022-11-26T09:43:22.620Z,12.40
2022-11-26T09:47:30.501Z,12.70
2022-11-26T09:51:34.573Z,13.30
2022-11-26T09:55:40.535Z,13.00
2022-11-26T09:59:44.606Z,11.20
2022-11-26T10:03:54.395Z,11.30
2022-11-26T10:08:23.591Z,11.70
2022-11-26T10:13:17.468Z,12.50
2022-11-26T10:17:35.165Z,11.50
2022-11-26T10:22:03.558Z,12.20
2022-11-26T10:26:12.819Z,12.40
2022-11-26T10:30:24.372Z,12.30
2022-11-26T10:34:39.324Z,12.60
2022-11-26T10:38:42.814Z,12.40
2022-11-26T10:42:57.252Z,12.30
2022-11-26T10:46:59.825Z,12.50
2022-11-26T10:51:16.538Z,12.70
2022-11-26T10:55:29.146Z,12.80
2022-11-26T10:59:38.072Z,12.50
2022-11-26T11:04:09.178Z,12.70
2022-11-26T11:08:27.736Z,12.10
2022-11-26T11:12:35.470Z,12.30
2022-11-26T11:16:48.219Z,12.10
2022-11-26T11:20:55.961Z,12.30
2022-11-26T11:25:03.090Z,12.50
2022-11-26T11:29:04.947Z,12.70
2022-11-26T11:33:27.756Z,12.30
2022-11-26T11:37:29.592Z,12.60
2022-11-26T11:41:36.891Z,12.10
2022-11-26T11:45:38.718Z,12.50
2022-11-26T11:49:50.488Z,12.90
2022-11-26T11:53:52.396Z,13.10
2022-11-26T11:58:05.992Z,12.90
2022-11-26T12:02:10.712Z,12.60
2022-11-26T12:06:47.022Z,12.90
2022-11-26T12:10:51.488Z,12.80
2022-11-26T12:15:18.169Z,12.50
2022-11-26T12:19:59.325Z,12.90
2022-11-26T12:24:29.170Z,13.30
2022-11-26T12:28:51.474Z,13.30
2022-11-26T12:33:02.336Z,13.30
2022-11-26T12:37:25.439Z,13.40
2022-11-26T12:41:49.258Z,13.30
2022-11-26T12:46:11.034Z,13.40
2022-11-26T12:50:24.178Z,13.30
2022-11-26T12:54:33.716Z,13.30
2022-11-26T12:58:35.442Z,13.50
2022-11-26T13:02:46.659Z,13.60
2022-11-26T13:07:26.219Z,13.80
2022-11-26T13:11:37.033Z,14.20
2022-11-26T13:15:47.124Z,14.60
2022-11-26T13:19:51.977Z,14.70
2022-11-26T13:24:19.072Z,14.40
2022-11-26T13:28:35.467Z,14.00
2022-11-26T13:32:40.230Z,14.00
2022-11-26T13:36:44.952Z,14.40
2022-11-26T13:40:51.665Z,14.30
2022-11-26T13:45:08.812Z,14.50
2022-11-26T13:49:40.831Z,14.50
2022-11-26T13:53:54.461Z,14.40
2022-11-26T13:58:00.039Z,14.60
2022-11-26T14:02:33.691Z,14.90
2022-11-26T14:06:35.839Z,14.80
2022-11-26T14:10:37.461Z,14.80
2022-11-26T14:14:41.328Z,14.70
2022-11-26T14:18:49.313Z,14.50
2022-11-26T14:22:51.464Z,14.30
2022-11-26T14:26:53.487Z,14.40
2022-11-26T14:30:55.321Z,13.90
2022-11-26T14:34:57.916Z,14.20
2022-11-26T14:39:15.731Z,13.80
2022-11-26T14:43:19.836Z,14.00
2022-11-26T14:47:22.321Z,14.20
2022-11-26T14:51:26.195Z,14.40
2022-11-26T14:55:30.400Z,14.30
2022-11-26T14:59:32.075Z,14.40
2022-11-26T15:03:34.821Z,14.40
2022-11-26T15:07:36.561Z,14.00
2022-11-26T15:11:48.955Z,13.80
2022-11-26T15:15:55.935Z,13.70
2022-11-26T15:20:02.690Z,13.60
2022-11-26T15:24:08.960Z,13.40
2022-11-26T15:28:21.568Z,13.30
2022-11-26T15:32:32.158Z,13.10
2022-11-26T15:36:34.494Z,13.10
2022-11-26T15:40:59.496Z,13.10
2022-11-26T15:45:01.887Z,13.00
2022-11-26T15:49:16.976Z,12.90
2022-11-26T15:53:31.709Z,13.20
2022-11-26T15:57:40.441Z,12.90
2022-11-26T16:01:45.678Z,12.70
2022-11-26T16:05:56.830Z,12.70
2022-11-26T16:10:10.788Z,12.50
2022-11-26T16:14:40.816Z,12.20
2022-11-26T16:18:58.757Z,12.00
2022-11-26T16:23:01.010Z,11.90
2022-11-26T16:27:08.482Z,11.90
2022-11-26T16:31:10.443Z,11.90
2022-11-26T16:35:43.595Z,11.70
2022-11-26T16:39:40.498Z,12.00
2022-11-26T16:43:43.022Z,11.60
2022-11-26T16:47:51.282Z,11.60
2022-11-26T16:51:53.069Z,11.60
2022-11-26T16:55:55.100Z,11.50
2022-11-26T17:00:03.697Z,11.70
2022-11-26T17:04:05.471Z,11.40
2022-11-26T17:08:12.002Z,11.70
2022-11-26T17:12:21.824Z,11.20
2022-11-26T17:16:23.857Z,11.10
2022-11-26T17:20:25.851Z,11.10
2022-11-26T17:24:31.353Z,10.90
2022-11-26T17:28:33.273Z,10.90
2022-11-26T17:32:34.990Z,10.50
2022-11-26T17:36:37.084Z,10.40
2022-11-26T17:40:38.951Z,10.40
2022-11-26T17:44:40.944Z,10.40
2022-11-26T17:48:42.774Z,10.50
2022-11-26T17:52:44.783Z,10.10
2022-11-26T17:56:46.541Z,10.50
2022-11-26T18:00:48.827Z,10.30
2022-11-26T18:04:51.135Z,10.60
2022-11-26T18:08:52.857Z,10.40
2022-11-26T18:12:55.067Z,10.30
2022-11-26T18:16:56.926Z,10.50
2022-11-26T18:20:58.973Z,10.30
2022-11-26T18:25:00.727Z,10.20
2022-11-26T18:29:03.145Z,10.50
2022-11-26T18:33:05.247Z,10.20
2022-11-26T18:37:07.307Z,10.10
2022-11-26T18:41:09.152Z,10.00
2022-11-26T18:45:15.289Z,10.00
2022-11-26T18:49:17.077Z,9.90
2022-11-26T18:53:19.025Z,9.80
2022-11-26T18:57:20.775Z,9.70
2022-11-26T19:01:25.619Z,9.70
2022-11-26T19:05:27.473Z,9.80
2022-11-26T19:09:30.350Z,9.70
2022-11-26T19:13:32.274Z,9.70
2022-11-26T19:17:34.155Z,9.50
2022-11-26T19:21:36.615Z,10.00
2022-11-26T19:25:38.302Z,9.50
2022-11-26T19:29:40.753Z,9.40
2022-11-26T19:33:44.039Z,9.40
2022-11-26T19:37:45.974Z,9.60
2022-11-26T19:41:47.697Z,9.40
2022-11-26T19:45:49.584Z,9.30
2022-11-26T19:49:51.674Z,9.20
2022-11-26T19:53:55.660Z,9.20
2022-11-26T19:57:57.333Z,9.40
2022-11-26T20:01:59.352Z,9.40
2022-11-26T20:06:06.641Z,9.30
2022-11-26T20:10:09.001Z,9.40
2022-11-26T20:14:10.823Z,9.50
2022-11-26T20:18:13.660Z,9.40
2022-11-26T20:22:15.369Z,9.40
2022-11-26T20:26:21.987Z,9.40
2022-11-26T20:30:24.840Z,9.20
2022-11-26T20:34:27.764Z,9.40
2022-11-26T20:38:29.510Z,9.20
2022-11-26T20:42:32.687Z,9.30
2022-11-26T20:46:35.993Z,9.00
2022-11-26T20:50:38.173Z,8.90
2022-11-26T20:54:40.013Z,9.00
2022-11-26T20:58:41.937Z,9.20
2022-11-26T21:02:45.374Z,9.20
2022-11-26T21:06:47.204Z,9.10
2022-11-26T21:10:49.868Z,9.00
2022-11-26T21:14:51.946Z,8.90
2022-11-26T21:18:54.676Z,9.00
2022-11-26T21:22:57.117Z,9.00
2022-11-26T21:26:58.834Z,9.40
2022-11-26T21:31:17.656Z,9.10
2022-11-26T21:35:19.369Z,8.90
2022-11-26T21:39:21.108Z,8.50
2022-11-26T21:43:22.748Z,8.70
2022-11-26T21:47:25.483Z,8.60
2022-11-26T21:51:29.670Z,8.30
2022-11-26T21:55:31.577Z,8.20
2022-11-26T21:59:33.384Z,8.00
2022-11-26T22:03:35.044Z,8.10
2022-11-26T22:07:36.753Z,8.10
2022-11-26T22:11:41.427Z,8.30
2022-11-26T22:15:44.496Z,8.40
2022-11-26T22:19:46.485Z,8.40
2022-11-26T22:23:48.901Z,8.20
2022-11-26T22:27:50.706Z,7.90
2022-11-26T22:31:52.723Z,8.10
2022-11-26T22:35:54.516Z,8.20
2022-11-26T22:39:56.514Z,8.20
2022-11-26T22:44:00.106Z,7.90
2022-11-26T22:48:01.756Z,8.00
2022-11-26T22:52:03.485Z,7.90
2022-11-26T22:56:06.107Z,7.60
2022-11-26T23:00:13.614Z,7.70
2022-11-26T23:04:15.390Z,7.80
2022-11-26T23:08:17.902Z,8.00
2022-11-26T23:12:19.796Z,7.80
2022-11-26T23:16:23.890Z,7.90
2022-11-26T23:20:25.756Z,7.90
2022-11-26T23:24:30.176Z,7.90
2022-11-26T23:28:33.461Z,7.70
2022-11-26T23:32:35.315Z,7.70
2022-11-26T23:36:37.710Z,8.10
2022-11-26T23:40:39.467Z,7.60
2022-11-26T23:44:41.254Z,7.70
2022-11-26T23:48:43.976Z,7.60
2022-11-26T23:52:45.716Z,7.40
2022-11-26T23:56:48.924Z,7.50
